Terminal Aerodrome Forecast
Issued by NWS Greer, SC

Home | Current Version | Previous Version | Text Only | Print | Product List | Glossary On
Versions: 1 2 3 4 5 6 7 8 9 10 11 12 13 14 15 16 17 18 19 20 21 22 23 24
000
FTUS42 KGSP 281137
TAFGSP
TAF
KGSP 281137Z 2812/2912 00000KT 1SM BR SCT003 OVC006
      TEMPO 2812/2814 1/4SM FG OVC001
     FM281400 20004KT 5SM BR BKN010
     FM281600 20007KT P6SM SCT035
     FM290000 20003KT P6SM SCT040
     FM290900 21003KT 3SM BR BKN008=

USA.gov is the U.S. government's official web portal to all federal, state and local government web resources and services.